Hingham, Montana
Current Conditions -  °F | °C
As of 7:53 AM on Monday 22 Dec 2014 (Local Time) from KHVR Reporting Station
Broken Clouds Broken Clouds  
Wind Chill: -7°   Ceiling: 6000
Heat Index: -2°   Visibility: 10mi
Dew Point: -4°   Wind: 12mph
Humidity: 82%   Direction: 230°SW
Pressure: 29.76"   Gusts: NA
Location:  48.55°N, 110.42°W
Report Text: KHVR 221453Z AUTO 23010KT 10SM BKN060 M02/M04 A2976 RMK AO2 SLP102 T10171044 53014 $
Loading
Personal Weather Stations






























Interactive Weather Map New forecast layout! Learn more

10-Day Weather Forecast

Advertisements
Track Severe Weather on mobile